logo
Search for airport 
image banner adimage banner adimage banner ad
image banner ad

VOBG - Hal Airport Bengaluru

Located in Bengaluru, India

ICAO - VOBG, IATA -

Data provided by Airmate  

General information

Coordinates: N12°57'8" E77°39'53"
Elevation is 2912 feet MSL.
 
View others Airports in Karnataka

Operational data

Special qualification required
Current time UTC:
Current local time:
Weather
METAR: VOBG 152100Z 10005KT 6000 NSC 24/20 Q1016 NOSIG
TAF: TAF VOBG 152000Z 1521/1606 12010KT 6000 FEW015 TEMPO 1600/1603 5000 BR SCT012
View NOTAMs / SUP AIP / TFR affecting this airport [VIEW]
Communications frequencies: [VIEW]

Runways:

RWY identifierQFULength (ft)Width (ft)SurfaceLDA (ft)
0985°10846200ASP
27265°10846200ASP

Airport contact information

Address: Bengaluru India

Satellite view of VOBG